Sim-Planet VA

Sim-Planet Nouvel Horizon. By: Anthony Pay
Since 2020.




 METAR ET TAF INFORMATION
METAR FOR GMFO
ADDS - METARS form results

(1843 UTC 28 January 2022)
Data provider http://aviationweather.gov/metar/data/
 
METAR text: GMFO 281830Z 08006KT 9999 SCT066 BKN230 12/03 Q1027 NOSIG
Conditions at: GMFO (OUJDA/ANGADS , MA) observed 1830 UTC 28 January 2022
Temperature: 12.0°C (54°F)
Dewpoint: 3.0°C (37°F) [RH = 54%]
Pressure (altimeter): 30.32 inches Hg (1027.0 mb)
Winds: from the E (80 degrees) at 7 MPH (6 knots; 3.1 m/s)
Visibility: 6 or more miles (10+ km)
Ceiling: 23000 feet AGL
Clouds: scattered clouds at 6600 feet AGL
broken clouds at 23000 feet AGL
Weather: no significant weather observed at this time

METAR text: GMFO 281800Z 05008KT 9999 SCT066 BKN230 14/03 Q1026 NOSIG
Conditions at: GMFO (OUJDA/ANGADS , MA) observed 1800 UTC 28 January 2022
Temperature: 14.0°C (57°F)
Dewpoint: 3.0°C (37°F) [RH = 47%]
Pressure (altimeter): 30.30 inches Hg (1026.0 mb)
Winds: from the NE (50 degrees) at 9 MPH (8 knots; 4.1 m/s)
Visibility: 6 or more miles (10+ km)
Ceiling: 23000 feet AGL
Clouds: scattered clouds at 6600 feet AGL
broken clouds at 23000 feet AGL
Weather: no significant weather observed at this time

Forecast for: GMFO (OUJDA/ANGADS , MA)
Text: TAF GMFO 281700Z 2818/2924 18008KT 9999 FEW040 SCT230
Forecast period: 1800 UTC 28 January 2022 to 0000 UTC 30 January 2022
Forecast type: FROM: standard forecast or significant change
Winds: from the S (180 degrees) at 9 MPH (8 knots; 4.1 m/s)
Visibility: 6 or more miles (10+ km)
Ceiling: at least 12,000 feet AGL
Clouds: few clouds at 4000 feet AGL
scattered clouds at 23000 feet AGL
Weather: no significant weather forecast for this period
Text: PROB30
Forecast period: 0400 to 0800 UTC 29 January 2022
Forecast type: TEMPORARY: The following changes expected for less than half the time period
Visibility: 2.49 miles (4.01 km)
Ceiling: 1000 feet AGL
Clouds: broken clouds at 1000 feet AGL
Weather: BR  (mist)

 AÉROPORT DE AÉROPORT

 INFORMATIONS DE PISTE
Piste 06 Longueur de la piste 9843 ft Largeur de la piste 148 ft
Élévation de la piste 1535 ft Seuil de la piste déplacés 0 ft Runway heading 58
Piste 24 Longueur de la piste 9843 ft Largeur de la piste 148 ft
Élévation de la piste 1493 ft Seuil de la piste déplacés 0 ft Runway heading 238

 AÉROPORT FRÉQUENCES
Type APP Nom OUJDA APP Féquence 136.6 MHZ
Type ATIS Nom ATIS Féquence 121.6 MHZ
Type TWR Nom OUJDA TWR Féquence 118.2 MHZ

 SIDA DE NAVIGATION
Type NDB Nom Oujda Féquence 371 KHZ
Type VOR-DME Nom Oujda Féquence 117500 KHZ

Nos Partenaires